Time;durP1;ratioP1;P1;durP2;ratioP2;P2;SDS_P1;SDS_P2;PMS_P1;PMS_P2;Temp;Humidity;BMP_temperature;BMP_pressure;BME280_temperature;BME280_humidity;BME280_pressure;Samples;Min_cycle;Max_cycle;Signal;HPM_P1;HPM_P2
2021/06/02 00:01:07;;;;;;;2.40;2.20;;;22.10;75.30;;;;;;5030269;28;20199;-71
2021/06/02 00:03:35;;;;;;;2.63;2.08;;;22.10;75.40;;;;;;5032341;28;20203;-72
2021/06/02 00:06:01;;;;;;;2.10;1.90;;;22.10;75.60;;;;;;5031263;28;20816;-71
2021/06/02 00:08:28;;;;;;;2.15;1.95;;;22.10;75.70;;;;;;5029454;28;20207;-71
2021/06/02 00:10:58;;;;;;;2.42;2.10;;;22.10;75.90;;;;;;5032697;28;20203;-70
2021/06/02 00:13:25;;;;;;;2.95;2.22;;;22.00;75.90;;;;;;5031870;28;20199;-71
2021/06/02 00:15:52;;;;;;;2.47;2.17;;;22.00;76.00;;;;;;5031377;28;20203;-70
2021/06/02 00:18:19;;;;;;;2.63;2.28;;;22.00;76.30;;;;;;5030728;28;20628;-70
2021/06/02 00:20:46;;;;;;;5.85;2.40;;;22.00;76.30;;;;;;5032424;28;20686;-70
2021/06/02 00:23:12;;;;;;;2.42;2.22;;;21.90;76.40;;;;;;5030969;28;20219;-71
2021/06/02 00:25:38;;;;;;;2.28;2.05;;;21.90;76.50;;;;;;5029266;28;20207;-70
2021/06/02 00:28:06;;;;;;;2.20;2.08;;;21.90;76.70;;;;;;5024194;28;20648;-70
2021/06/02 00:30:33;;;;;;;2.80;2.60;;;21.90;76.80;;;;;;5031856;28;20207;-70
2021/06/02 00:33:00;;;;;;;2.78;2.58;;;21.90;77.00;;;;;;5032398;28;20246;-70
2021/06/02 00:35:26;;;;;;;2.33;2.13;;;21.80;77.00;;;;;;5030921;28;20200;-70
2021/06/02 00:37:53;;;;;;;2.53;2.30;;;21.80;77.10;;;;;;5031917;28;20211;-71
2021/06/02 00:40:31;;;;;;;2.25;2.05;;;21.80;77.30;;;;;;5031433;28;20226;-71
2021/06/02 00:42:57;;;;;;;2.35;2.08;;;21.80;78.30;;;;;;5031752;28;20281;-71
2021/06/02 00:45:26;;;;;;;2.75;2.38;;;21.80;77.50;;;;;;5031805;28;20204;-70
2021/06/02 00:47:54;;;;;;;2.75;2.50;;;21.70;77.60;;;;;;5032112;28;20577;-70
2021/06/02 00:50:21;;;;;;;2.72;2.53;;;21.70;77.70;;;;;;5029811;28;20199;-71
2021/06/02 00:52:48;;;;;;;2.95;2.75;;;21.70;77.90;;;;;;5030773;28;20226;-70
2021/06/02 00:55:14;;;;;;;2.95;2.72;;;21.70;78.10;;;;;;5030977;28;20536;-70
2021/06/02 00:57:47;;;;;;;2.72;2.53;;;21.70;78.20;;;;;;5031413;28;20211;-70
2021/06/02 01:00:15;;;;;;;2.80;2.60;;;21.60;78.30;;;;;;5030596;28;20227;-70
2021/06/02 01:02:51;;;;;;;3.10;2.90;;;21.60;78.40;;;;;;5031633;28;20314;-70
2021/06/02 01:05:20;;;;;;;2.83;2.60;;;21.60;78.60;;;;;;5028304;28;20190;-70
2021/06/02 01:07:48;;;;;;;2.70;2.50;;;21.60;78.70;;;;;;5023833;28;20250;-70
2021/06/02 01:10:14;;;;;;;3.08;2.50;;;21.60;78.80;;;;;;5024156;28;20196;-70
2021/06/02 01:12:42;;;;;;;2.60;2.15;;;21.50;78.80;;;;;;5022073;28;20199;-70
2021/06/02 01:15:09;;;;;;;3.05;2.42;;;21.50;79.00;;;;;;5031432;28;20203;-70
2021/06/02 01:17:35;;;;;;;3.05;2.75;;;21.50;79.10;;;;;;5029891;28;20209;-70
2021/06/02 01:20:05;;;;;;;3.28;2.97;;;21.50;79.30;;;;;;5029901;28;20203;-70
2021/06/02 01:22:35;;;;;;;2.90;2.70;;;21.50;79.40;;;;;;5031354;28;20188;-70
2021/06/02 01:25:08;;;;;;;2.58;2.38;;;21.50;79.50;;;;;;5031242;28;20238;-70
2021/06/02 01:27:35;;;;;;;2.80;2.60;;;21.40;79.60;;;;;;5031179;28;20206;-70
2021/06/02 01:30:01;;;;;;;2.75;2.55;;;21.40;79.70;;;;;;5030313;28;20195;-70
2021/06/02 01:33:08;;;;;;;3.15;2.90;;;21.40;79.80;;;;;;5029558;28;20196;-70
2021/06/02 01:35:49;;;;;;;3.50;3.20;;;21.40;80.10;;;;;;5029161;28;20230;-69
2021/06/02 01:38:52;;;;;;;3.50;2.55;;;21.40;80.10;;;;;;5030799;28;20187;-69
2021/06/02 01:41:26;;;;;;;2.83;2.50;;;21.30;80.30;;;;;;5031707;28;20203;-70
2021/06/02 01:44:44;;;;;;;2.75;2.55;;;21.30;80.20;;;;;;5030808;28;20221;-69
2021/06/02 01:48:07;;;;;;;2.70;2.50;;;21.30;80.60;;;;;;5030686;28;20265;-69
2021/06/02 01:51:09;;;;;;;3.10;2.80;;;21.30;80.70;;;;;;5028756;28;20195;-69
2021/06/02 01:53:50;;;;;;;2.60;2.40;;;21.30;80.70;;;;;;4998140;28;20209;-69
2021/06/02 01:56:49;;;;;;;3.70;3.38;;;21.20;80.60;;;;;;5029822;28;20207;-69
2021/06/02 01:59:55;;;;;;;3.28;2.97;;;21.20;80.80;;;;;;5030232;28;20195;-69
2021/06/02 02:02:53;;;;;;;2.88;2.67;;;21.20;80.90;;;;;;5029798;28;20199;-69
2021/06/02 02:06:04;;;;;;;3.55;2.92;;;21.20;81.00;;;;;;5028066;28;20192;-69
2021/06/02 02:08:50;;;;;;;3.97;2.92;;;21.20;81.30;;;;;;4987985;28;20204;-69
2021/06/02 02:11:35;;;;;;;3.55;3.25;;;21.10;81.20;;;;;;5011608;28;20204;-69
2021/06/02 02:14:45;;;;;;;3.95;2.55;;;21.10;81.30;;;;;;5011102;28;20192;-69
2021/06/02 02:17:38;;;;;;;3.65;2.65;;;21.10;81.50;;;;;;5018413;28;20599;-69
2021/06/02 02:20:13;;;;;;;3.08;2.70;;;21.10;81.60;;;;;;5029981;28;20223;-70
2021/06/02 02:23:03;;;;;;;3.10;2.80;;;21.10;81.70;;;;;;5021879;28;20651;-69
2021/06/02 02:25:44;;;;;;;3.25;2.95;;;21.10;81.90;;;;;;5028624;28;20235;-70
2021/06/02 02:28:21;;;;;;;3.45;2.83;;;21.00;82.00;;;;;;5026080;28;20222;-70
2021/06/02 02:30:59;;;;;;;3.10;2.83;;;21.00;82.00;;;;;;5026308;28;20203;-70
2021/06/02 02:33:42;;;;;;;2.92;2.72;;;21.00;82.10;;;;;;5034031;28;20996;-71
2021/06/02 02:36:14;;;;;;;3.53;2.80;;;21.00;82.30;;;;;;5033863;28;20255;-70
2021/06/02 02:39:01;;;;;;;3.33;3.13;;;21.00;82.50;;;;;;5032643;28;20199;-70
2021/06/02 02:41:46;;;;;;;3.00;2.80;;;20.90;82.60;;;;;;5034203;28;20203;-71
2021/06/02 02:44:32;;;;;;;2.95;2.45;;;20.90;82.70;;;;;;5033618;28;20222;-71
2021/06/02 02:47:10;;;;;;;3.83;3.30;;;20.90;82.90;;;;;;5034578;28;20209;-70
2021/06/02 02:49:46;;;;;;;2.50;2.30;;;20.90;83.10;;;;;;5032240;28;20206;-70
2021/06/02 02:52:19;;;;;;;3.78;2.90;;;20.90;83.20;;;;;;5034545;28;20578;-70
2021/06/02 02:54:50;;;;;;;3.50;3.22;;;20.80;83.20;;;;;;5033020;28;20204;-70
2021/06/02 02:57:28;;;;;;;3.20;2.90;;;20.80;83.40;;;;;;5033885;28;20257;-70
2021/06/02 02:59:59;;;;;;;3.20;3.00;;;20.80;83.70;;;;;;5019135;28;20196;-71
2021/06/02 03:02:32;;;;;;;2.60;2.40;;;20.80;83.90;;;;;;5032241;28;20195;-71
2021/06/02 03:05:01;;;;;;;3.22;2.92;;;20.80;84.00;;;;;;5034257;28;20219;-70
2021/06/02 03:07:33;;;;;;;4.50;3.22;;;20.70;84.00;;;;;;5032911;28;20265;-70
2021/06/02 03:10:07;;;;;;;3.55;3.17;;;20.70;84.20;;;;;;5032880;28;20199;-70
2021/06/02 03:12:46;;;;;;;3.55;3.20;;;20.70;84.40;;;;;;5033771;28;20199;-69
2021/06/02 03:15:31;;;;;;;2.45;2.25;;;20.70;84.50;;;;;;5029676;28;20192;-70
2021/06/02 03:18:06;;;;;;;2.90;2.70;;;20.70;84.60;;;;;;5023773;28;20576;-69
2021/06/02 03:20:40;;;;;;;5.07;3.85;;;20.70;84.80;;;;;;5033306;28;20198;-69
2021/06/02 03:23:23;;;;;;;3.10;2.80;;;20.60;85.70;;;;;;5032800;28;20516;-70
2021/06/02 03:25:56;;;;;;;3.80;3.50;;;20.60;85.20;;;;;;5029096;28;20250;-70
2021/06/02 03:28:40;;;;;;;3.30;2.78;;;20.60;85.30;;;;;;5033465;28;20257;-69
2021/06/02 03:31:16;;;;;;;3.53;3.10;;;20.60;85.50;;;;;;5020110;28;20184;-70
2021/06/02 03:34:04;;;;;;;3.10;2.90;;;20.60;85.60;;;;;;5033180;28;20297;-70
2021/06/02 03:36:40;;;;;;;3.08;2.80;;;20.50;85.70;;;;;;5033735;28;20188;-70
2021/06/02 03:39:09;;;;;;;3.83;3.47;;;20.50;85.80;;;;;;5032574;28;20203;-70
2021/06/02 03:41:55;;;;;;;3.20;3.00;;;20.50;85.90;;;;;;5033822;28;20254;-69
2021/06/02 03:44:44;;;;;;;3.05;2.78;;;20.50;86.90;;;;;;5032362;28;20250;-70
2021/06/02 03:47:21;;;;;;;3.55;3.33;;;20.50;86.30;;;;;;5031848;28;20215;-70
2021/06/02 03:50:00;;;;;;;4.07;3.25;;;20.50;86.40;;;;;;5031423;28;20373;-70
2021/06/02 03:52:43;;;;;;;3.03;2.83;;;20.40;86.50;;;;;;5033022;28;20214;-70
2021/06/02 03:55:15;;;;;;;3.40;3.10;;;20.40;86.70;;;;;;5031590;28;20203;-70
2021/06/02 03:57:46;;;;;;;3.97;3.58;;;20.40;86.70;;;;;;5032198;28;20531;-70
2021/06/02 04:00:16;;;;;;;4.55;3.03;;;20.40;86.90;;;;;;5031624;28;20231;-70
2021/06/02 04:02:54;;;;;;;2.97;2.78;;;20.40;87.00;;;;;;5031827;28;20207;-70
2021/06/02 04:05:35;;;;;;;3.78;3.47;;;20.40;87.10;;;;;;5028302;28;20247;-70
2021/06/02 04:08:14;;;;;;;3.80;3.50;;;20.30;87.20;;;;;;5026307;28;20534;-70
2021/06/02 04:10:46;;;;;;;4.45;3.08;;;20.30;87.40;;;;;;5030308;28;20283;-70
2021/06/02 04:13:35;;;;;;;3.50;3.03;;;20.30;87.40;;;;;;5031300;28;20188;-70
2021/06/02 04:16:09;;;;;;;3.88;3.58;;;20.30;87.80;;;;;;5031835;28;20203;-70
2021/06/02 04:18:36;;;;;;;4.07;3.78;;;20.30;87.70;;;;;;5024052;28;20203;-69
2021/06/02 04:21:05;;;;;;;3.88;3.58;;;20.30;87.80;;;;;;5031470;28;20208;-69
2021/06/02 04:23:34;;;;;;;3.70;3.40;;;20.30;87.80;;;;;;5030822;28;20212;-70
2021/06/02 04:26:01;;;;;;;3.72;3.33;;;20.30;87.90;;;;;;5029348;28;20539;-69
2021/06/02 04:28:31;;;;;;;3.80;3.50;;;20.20;87.80;;;;;;5027515;28;20204;-69
2021/06/02 04:31:04;;;;;;;4.15;3.75;;;20.20;87.90;;;;;;5030929;28;20285;-69
2021/06/02 04:33:33;;;;;;;3.92;3.63;;;20.20;88.00;;;;;;5032215;28;20242;-69
2021/06/02 04:35:59;;;;;;;3.53;3.22;;;20.20;88.10;;;;;;5031715;28;20200;-69
2021/06/02 04:38:27;;;;;;;3.55;3.25;;;20.20;88.00;;;;;;5031384;28;20195;-69
2021/06/02 04:40:54;;;;;;;3.63;3.33;;;20.20;88.10;;;;;;5022376;28;20199;-69
2021/06/02 04:43:20;;;;;;;3.22;2.92;;;20.20;88.40;;;;;;5032212;28;20223;-69
2021/06/02 04:45:55;;;;;;;3.15;2.95;;;20.20;88.40;;;;;;5031984;28;20208;-69
2021/06/02 04:48:21;;;;;;;4.00;3.60;;;20.20;88.50;;;;;;5031438;28;20661;-69
2021/06/02 04:50:55;;;;;;;2.80;2.60;;;20.20;88.20;;;;;;5031688;28;20203;-69
2021/06/02 04:54:04;;;;;;;3.55;3.25;;;20.20;88.40;;;;;;5030155;28;20247;-70
2021/06/02 04:57:01;;;;;;;3.17;2.97;;;20.20;88.60;;;;;;5030917;28;20191;-70
2021/06/02 04:59:54;;;;;;;6.80;4.07;;;20.20;88.60;;;;;;5015679;28;20204;-70
2021/06/02 05:02:48;;;;;;;3.22;2.92;;;20.20;88.80;;;;;;5030271;28;20207;-71
2021/06/02 05:05:51;;;;;;;3.47;3.17;;;20.10;89.10;;;;;;5025835;28;20576;-70
2021/06/02 05:09:02;;;;;;;4.70;3.03;;;20.10;89.10;;;;;;5024736;28;20202;-71
2021/06/02 05:12:01;;;;;;;3.10;2.80;;;20.10;89.90;;;;;;4984845;28;20204;-71
2021/06/02 05:15:12;;;;;;;4.72;3.70;;;20.10;89.60;;;;;;4985259;28;20215;-71
2021/06/02 05:17:57;;;;;;;4.45;3.97;;;20.10;90.30;;;;;;4991687;28;20686;-71
2021/06/02 05:24:30;;;;;;;7.45;3.78;;;20.10;90.60;;;;;;5023982;28;20354;-71
2021/06/02 05:27:33;;;;;;;6.63;3.88;;;20.10;90.50;;;;;;5024651;28;20210;-71
2021/06/02 05:30:29;;;;;;;4.35;3.80;;;20.10;91.50;;;;;;5023785;28;20252;-71
2021/06/02 05:33:44;;;;;;;4.05;3.67;;;20.20;91.00;;;;;;5025065;28;20249;-71
2021/06/02 05:36:46;;;;;;;3.00;2.80;;;20.30;90.20;;;;;;5027094;28;20195;-70
2021/06/02 05:39:50;;;;;;;4.10;3.70;;;20.40;90.10;;;;;;5024688;28;20199;-70
2021/06/02 05:42:22;;;;;;;4.05;3.45;;;20.50;90.10;;;;;;5026097;28;20292;-70
2021/06/02 05:45:22;;;;;;;3.78;3.47;;;20.50;90.50;;;;;;5024450;28;20607;-70
2021/06/02 05:48:35;;;;;;;4.78;3.30;;;20.40;90.20;;;;;;5025868;28;20207;-70
2021/06/02 05:51:38;;;;;;;4.72;3.60;;;20.40;90.20;;;;;;5027078;28;20639;-69
2021/06/02 05:54:45;;;;;;;4.15;3.85;;;20.40;90.30;;;;;;5030119;28;20210;-70
2021/06/02 05:57:44;;;;;;;3.67;3.38;;;20.40;90.30;;;;;;5020653;28;20207;-69
2021/06/02 06:00:44;;;;;;;3.60;3.30;;;20.40;90.30;;;;;;4977653;28;20659;-70
2021/06/02 06:03:46;;;;;;;3.58;3.28;;;20.40;90.50;;;;;;5025337;28;20203;-70
2021/06/02 06:06:24;;;;;;;4.60;3.38;;;20.40;90.50;;;;;;5029151;28;20315;-69
2021/06/02 06:09:35;;;;;;;3.58;3.13;;;20.40;90.40;;;;;;5029011;28;20195;-69
2021/06/02 06:12:47;;;;;;;3.95;3.65;;;20.40;90.50;;;;;;5030914;28;20989;-70
2021/06/02 06:15:55;;;;;;;4.70;3.60;;;20.40;90.50;;;;;;5012340;28;20537;-71
2021/06/02 06:18:47;;;;;;;5.60;3.33;;;20.40;90.50;;;;;;5029040;28;20209;-71
2021/06/02 06:21:48;;;;;;;3.83;3.45;;;20.40;90.40;;;;;;5031865;28;20206;-71
2021/06/02 06:24:18;;;;;;;4.82;3.90;;;20.40;90.40;;;;;;5032628;28;20563;-70
2021/06/02 06:26:51;;;;;;;3.60;3.30;;;20.50;90.30;;;;;;5034362;28;20652;-70
2021/06/02 06:29:26;;;;;;;3.80;3.40;;;20.50;90.20;;;;;;5028554;28;20509;-69
2021/06/02 06:31:53;;;;;;;3.60;3.40;;;20.60;90.00;;;;;;5032815;28;20292;-70
2021/06/02 06:34:25;;;;;;;3.58;3.28;;;20.70;89.80;;;;;;5026111;28;20254;-70
2021/06/02 06:36:55;;;;;;;4.03;3.08;;;20.70;89.70;;;;;;5031745;28;20199;-69
2021/06/02 06:39:29;;;;;;;3.67;3.25;;;20.70;89.50;;;;;;5030427;28;20196;-70
2021/06/02 06:41:56;;;;;;;3.55;3.25;;;20.70;89.60;;;;;;5032311;28;20640;-70
2021/06/02 06:44:25;;;;;;;2.60;2.40;;;20.70;89.60;;;;;;5030882;28;20215;-70
2021/06/02 06:46:54;;;;;;;3.92;2.88;;;20.70;89.50;;;;;;5031562;28;20195;-70
2021/06/02 06:49:23;;;;;;;4.40;2.95;;;20.70;89.50;;;;;;5029709;28;20215;-69
2021/06/02 06:51:52;;;;;;;4.03;3.63;;;20.70;89.30;;;;;;5027387;28;20206;-70
2021/06/02 06:54:20;;;;;;;4.80;3.42;;;20.80;88.90;;;;;;5031933;28;20195;-69
2021/06/02 06:56:48;;;;;;;3.28;2.97;;;21.00;88.50;;;;;;5024709;28;20207;-70
2021/06/02 06:59:15;;;;;;;3.47;3.17;;;21.10;88.10;;;;;;5030536;28;20312;-69
2021/06/02 07:01:42;;;;;;;3.30;3.00;;;21.20;87.70;;;;;;5026751;28;20203;-70
2021/06/02 07:04:08;;;;;;;3.42;3.08;;;21.30;87.30;;;;;;5032541;28;20231;-70
2021/06/02 07:06:38;;;;;;;3.30;3.00;;;21.50;86.50;;;;;;5031882;28;20207;-70
2021/06/02 07:09:05;;;;;;;6.13;3.00;;;21.60;85.60;;;;;;5031819;28;20818;-70
2021/06/02 07:11:37;;;;;;;4.05;2.88;;;21.70;84.90;;;;;;5032028;28;20308;-70
2021/06/02 07:14:04;;;;;;;3.10;2.80;;;21.90;84.50;;;;;;5031198;28;20199;-70
2021/06/02 07:16:33;;;;;;;2.75;2.53;;;22.00;84.00;;;;;;5032107;28;20199;-69
2021/06/02 07:19:01;;;;;;;3.35;3.05;;;22.10;83.30;;;;;;5031337;28;20212;-72
2021/06/02 07:21:29;;;;;;;3.28;2.97;;;22.30;82.80;;;;;;5031835;28;20552;-70
2021/06/02 07:23:57;;;;;;;3.08;2.85;;;22.50;82.00;;;;;;5029448;28;20276;-70
2021/06/02 07:26:24;;;;;;;2.85;2.60;;;22.70;81.10;;;;;;5027806;28;20199;-71
2021/06/02 07:28:50;;;;;;;3.40;3.10;;;22.90;80.40;;;;;;5028484;28;20210;-71
2021/06/02 07:31:17;;;;;;;2.60;2.40;;;23.10;79.50;;;;;;5028069;28;20462;-71
2021/06/02 07:33:44;;;;;;;3.57;2.60;;;23.20;78.90;;;;;;4984835;28;1080792;-70
2021/06/02 07:36:11;;;;;;;3.93;2.43;;;23.20;78.30;;;;;;5028334;28;20195;-70
2021/06/02 07:38:39;;;;;;;3.70;2.75;;;23.20;78.40;;;;;;5028633;28;20469;-70
2021/06/02 07:41:07;;;;;;;2.70;2.50;;;23.20;78.50;;;;;;5027381;28;20223;-70
2021/06/02 07:43:34;;;;;;;2.70;2.30;;;23.20;78.70;;;;;;5030913;28;20555;-70
2021/06/02 07:46:00;;;;;;;3.78;2.95;;;23.10;78.60;;;;;;5032670;28;20481;-71
2021/06/02 07:48:27;;;;;;;3.17;2.42;;;23.10;78.90;;;;;;5029188;28;20206;-70
2021/06/02 07:50:53;;;;;;;4.75;3.75;;;23.00;79.10;;;;;;5029344;28;20659;-71
2021/06/02 07:53:19;;;;;;;3.03;2.80;;;23.00;79.40;;;;;;5028813;28;20207;-70
2021/06/02 07:55:46;;;;;;;3.83;2.78;;;23.00;79.60;;;;;;5030969;28;20203;-70
2021/06/02 07:58:13;;;;;;;2.38;2.17;;;23.00;79.70;;;;;;5032033;28;20644;-70
2021/06/02 08:00:40;;;;;;;2.97;2.60;;;22.90;79.70;;;;;;5031736;28;20591;-70
2021/06/02 08:03:06;;;;;;;3.22;2.72;;;22.90;79.80;;;;;;5032029;28;20204;-71
2021/06/02 08:05:32;;;;;;;3.83;2.92;;;22.90;79.90;;;;;;5032728;28;20498;-70
2021/06/02 08:07:58;;;;;;;4.38;2.35;;;22.90;79.80;;;;;;5031100;28;20662;-71
2021/06/02 08:10:25;;;;;;;2.40;2.20;;;22.90;79.90;;;;;;5031735;28;20203;-70
2021/06/02 08:12:52;;;;;;;2.60;2.25;;;22.90;79.80;;;;;;5030926;28;20296;-70
2021/06/02 08:15:20;;;;;;;3.55;3.08;;;22.90;79.70;;;;;;5032335;28;20218;-70
2021/06/02 08:17:47;;;;;;;2.78;2.25;;;22.90;79.70;;;;;;5030764;28;20200;-70
2021/06/02 08:20:16;;;;;;;3.03;2.15;;;22.90;79.40;;;;;;5032142;28;20577;-70
2021/06/02 08:22:42;;;;;;;3.53;2.50;;;22.90;79.30;;;;;;5030894;28;20199;-70
2021/06/02 08:25:10;;;;;;;2.67;1.80;;;23.00;79.70;;;;;;5028490;28;20219;-70
2021/06/02 08:27:37;;;;;;;2.70;2.50;;;23.00;79.70;;;;;;5023709;28;20204;-70
2021/06/02 08:30:06;;;;;;;2.50;2.30;;;23.00;79.20;;;;;;5029353;28;20249;-70
2021/06/02 08:32:33;;;;;;;4.15;2.47;;;23.10;78.70;;;;;;5028174;28;20555;-70
2021/06/02 08:35:00;;;;;;;2.50;2.30;;;23.10;78.00;;;;;;5017789;28;20219;-70
2021/06/02 08:37:26;;;;;;;2.17;2.00;;;23.20;78.20;;;;;;5026608;28;20200;-70
2021/06/02 08:39:52;;;;;;;2.97;2.67;;;23.30;78.10;;;;;;5025098;28;20454;-70
2021/06/02 08:42:19;;;;;;;3.90;2.28;;;23.30;77.50;;;;;;5023606;28;20938;-71
2021/06/02 08:44:45;;;;;;;4.47;2.67;;;23.40;76.50;;;;;;5025025;28;20298;-70
2021/06/02 08:47:12;;;;;;;3.10;2.88;;;23.50;68.60;;;;;;5026565;28;20640;-71
2021/06/02 08:49:39;;;;;;;2.47;2.10;;;23.60;71.90;;;;;;5028317;28;20207;-70
2021/06/02 08:52:07;;;;;;;2.67;2.20;;;23.70;71.30;;;;;;5027096;28;20541;-70
2021/06/02 08:54:34;;;;;;;4.07;2.40;;;23.70;70.90;;;;;;5028437;28;20454;-70
2021/06/02 08:57:03;;;;;;;4.27;2.53;;;23.80;71.30;;;;;;5028187;28;20470;-70
2021/06/02 08:59:29;;;;;;;2.63;2.10;;;23.80;71.20;;;;;;5029261;28;20458;-71
2021/06/02 09:01:57;;;;;;;2.57;2.13;;;23.90;70.60;;;;;;5029430;28;20454;-70
2021/06/02 09:04:23;;;;;;;2.17;1.97;;;23.90;70.60;;;;;;5031232;28;20474;-71
2021/06/02 09:06:51;;;;;;;2.70;2.50;;;24.00;69.80;;;;;;5030077;28;20469;-70
2021/06/02 09:09:19;;;;;;;2.63;2.00;;;24.10;70.40;;;;;;5030735;28;20488;-70
2021/06/02 09:11:48;;;;;;;1.93;1.83;;;24.10;70.20;;;;;;5031305;28;20473;-71
2021/06/02 09:14:22;;;;;;;2.80;2.50;;;24.20;70.40;;;;;;5030582;28;20453;-71
2021/06/02 09:16:49;;;;;;;2.60;2.40;;;24.30;64.00;;;;;;5029958;28;20480;-71
2021/06/02 09:19:15;;;;;;;2.73;2.40;;;24.40;67.00;;;;;;5029448;28;20446;-71
2021/06/02 09:21:43;;;;;;;2.83;2.53;;;24.50;67.70;;;;;;5030011;28;20469;-70
2021/06/02 09:24:11;;;;;;;2.17;1.73;;;24.60;67.70;;;;;;5029974;28;20796;-70
2021/06/02 09:26:37;;;;;;;2.70;1.90;;;24.60;67.60;;;;;;5019766;28;20467;-69
2021/06/02 09:29:08;;;;;;;2.80;2.23;;;24.60;67.30;;;;;;5010686;28;20496;-70
2021/06/02 09:31:37;;;;;;;5.07;2.27;;;24.70;67.60;;;;;;5026739;28;20553;-70
2021/06/02 09:34:13;;;;;;;3.83;2.40;;;24.70;66.90;;;;;;5023018;28;20485;-70
2021/06/02 09:36:40;;;;;;;2.37;2.17;;;24.70;67.40;;;;;;5031750;28;20453;-71
2021/06/02 09:39:09;;;;;;;2.50;2.30;;;24.70;68.00;;;;;;5030456;28;20462;-70
2021/06/02 09:41:41;;;;;;;2.40;2.20;;;24.70;68.20;;;;;;5031540;28;20457;-71
2021/06/02 09:44:15;;;;;;;2.80;2.30;;;24.70;67.40;;;;;;5023453;28;20466;-71
2021/06/02 09:46:58;;;;;;;4.00;2.30;;;24.70;67.90;;;;;;5025656;28;20974;-71
2021/06/02 09:49:24;;;;;;;2.50;2.30;;;24.70;68.20;;;;;;5019795;28;20528;-71
2021/06/02 09:51:51;;;;;;;2.63;2.27;;;24.80;67.90;;;;;;5028111;28;20458;-71
2021/06/02 09:54:21;;;;;;;2.60;2.40;;;24.80;67.30;;;;;;5028020;28;20457;-71
2021/06/02 09:56:49;;;;;;;2.10;1.90;;;24.70;68.50;;;;;;5025391;28;20494;-72
2021/06/02 09:59:15;;;;;;;2.80;2.50;;;24.70;67.90;;;;;;5027489;28;20520;-70
2021/06/02 10:01:50;;;;;;;5.73;2.27;;;24.70;67.60;;;;;;5019451;28;20486;-70
2021/06/02 10:04:17;;;;;;;8.20;2.77;;;24.70;62.80;;;;;;5026254;28;20481;-71
2021/06/02 10:06:43;;;;;;;2.90;2.27;;;24.80;63.60;;;;;;5025106;28;20462;-70
2021/06/02 10:09:09;;;;;;;4.03;1.93;;;24.80;65.20;;;;;;5026743;28;20465;-71
2021/06/02 10:11:37;;;;;;;4.00;2.50;;;24.90;65.30;;;;;;5023923;28;20470;-69
2021/06/02 10:14:11;;;;;;;2.33;2.13;;;24.80;65.60;;;;;;5025982;28;20447;-69
2021/06/02 10:16:40;;;;;;;2.63;2.23;;;24.80;65.00;;;;;;5023763;28;20454;-68
2021/06/02 10:19:06;;;;;;;2.20;2.00;;;24.80;64.70;;;;;;5025679;28;20926;-71
2021/06/02 10:21:43;;;;;;;2.60;2.10;;;24.80;65.40;;;;;;5025125;28;20942;-70
2021/06/02 10:24:09;;;;;;;2.60;2.40;;;24.80;65.60;;;;;;5028442;28;20485;-71
2021/06/02 10:26:38;;;;;;;2.80;2.23;;;24.80;65.10;;;;;;5027389;28;20524;-70
2021/06/02 10:29:06;;;;;;;2.57;2.37;;;24.80;65.60;;;;;;5023756;28;20456;-71
2021/06/02 10:31:33;;;;;;;2.77;2.13;;;24.80;65.40;;;;;;5025068;28;20486;-71
2021/06/02 10:34:00;;;;;;;2.70;2.50;;;24.80;65.70;;;;;;5023504;28;20484;-71
2021/06/02 10:36:27;;;;;;;3.57;2.57;;;24.80;65.40;;;;;;5025644;28;20931;-70
2021/06/02 10:38:56;;;;;;;2.27;2.03;;;24.70;66.10;;;;;;5025084;28;20516;-70
2021/06/02 10:41:27;;;;;;;2.87;2.30;;;24.80;66.40;;;;;;5025772;28;20776;-69
2021/06/02 10:44:07;;;;;;;3.03;2.03;;;24.70;66.50;;;;;;5026729;28;20583;-70
2021/06/02 10:46:37;;;;;;;2.70;2.20;;;24.70;66.70;;;;;;5024293;28;20577;-71
2021/06/02 10:49:04;;;;;;;3.27;2.33;;;24.70;66.30;;;;;;5024138;28;20458;-71
2021/06/02 10:51:44;;;;;;;2.90;1.83;;;24.70;66.90;;;;;;5026973;28;20453;-71
2021/06/02 10:54:12;;;;;;;3.10;2.67;;;24.70;67.00;;;;;;5030224;28;20501;-70
2021/06/02 10:56:40;;;;;;;2.20;2.00;;;24.70;67.30;;;;;;5029239;28;20454;-71
2021/06/02 10:59:25;;;;;;;2.30;2.10;;;24.70;67.80;;;;;;5028749;28;20464;-71
2021/06/02 11:02:07;;;;;;;3.20;2.70;;;24.70;65.50;;;;;;5028405;28;20457;-71
2021/06/02 11:04:35;;;;;;;2.63;2.40;;;24.70;66.20;;;;;;5028270;28;20507;-70
2021/06/02 11:07:14;;;;;;;4.47;2.30;;;24.70;65.60;;;;;;5030041;28;20214;-69
2021/06/02 11:09:58;;;;;;;5.93;2.50;;;24.70;66.20;;;;;;5030895;28;20485;-69
2021/06/02 11:12:25;;;;;;;3.10;2.80;;;24.80;65.90;;;;;;5026984;28;20532;-70
2021/06/02 11:14:52;;;;;;;3.20;2.90;;;24.80;66.00;;;;;;5024970;28;20958;-71
2021/06/02 11:17:21;;;;;;;3.27;2.23;;;24.80;66.50;;;;;;5019998;28;20489;-69
2021/06/02 11:19:50;;;;;;;3.20;2.37;;;24.80;66.20;;;;;;5027778;28;20462;-70
2021/06/02 11:22:19;;;;;;;3.03;2.50;;;24.80;65.60;;;;;;5024592;28;20457;-71
2021/06/02 11:24:50;;;;;;;2.43;2.00;;;24.80;65.70;;;;;;5024893;28;20953;-72
2021/06/02 11:27:38;;;;;;;4.60;2.80;;;24.80;66.30;;;;;;5018536;28;20453;-71
2021/06/02 11:30:23;;;;;;;2.50;2.30;;;24.80;66.20;;;;;;5021002;28;20449;-72
2021/06/02 11:33:13;;;;;;;3.10;2.40;;;24.80;66.30;;;;;;5023772;28;20492;-71
2021/06/02 11:36:08;;;;;;;3.83;2.33;;;24.80;66.40;;;;;;5029984;28;20572;-71
2021/06/02 11:38:35;;;;;;;2.33;2.13;;;24.80;66.30;;;;;;5027269;28;20462;-73
2021/06/02 11:41:02;;;;;;;4.03;2.40;;;24.80;66.50;;;;;;5017421;28;20450;-72
2021/06/02 11:43:28;;;;;;;3.60;2.43;;;24.80;66.40;;;;;;5023817;28;20470;-71
2021/06/02 11:45:59;;;;;;;3.07;2.13;;;24.80;66.30;;;;;;5028831;28;20479;-72
2021/06/02 11:48:31;;;;;;;3.00;2.33;;;24.70;66.30;;;;;;5024069;28;20493;-71
2021/06/02 11:51:00;;;;;;;2.60;2.40;;;24.70;66.70;;;;;;5024664;28;20927;-72
2021/06/02 11:53:41;;;;;;;3.50;2.57;;;24.80;66.50;;;;;;5027157;28;20465;-71
2021/06/02 11:56:07;;;;;;;2.43;2.23;;;24.80;66.70;;;;;;5029444;28;20798;-71
2021/06/02 11:58:34;;;;;;;3.03;1.93;;;24.80;66.40;;;;;;5024249;28;20454;-71
2021/06/02 12:01:00;;;;;;;2.90;2.60;;;24.80;66.60;;;;;;5027070;28;20461;-70
2021/06/02 12:03:28;;;;;;;3.60;2.60;;;24.80;66.90;;;;;;5019314;28;20466;-71
2021/06/02 12:05:55;;;;;;;3.63;3.30;;;24.70;66.40;;;;;;5020963;28;20481;-71
2021/06/02 12:08:22;;;;;;;2.53;2.33;;;24.70;66.30;;;;;;5023611;28;20987;-71
2021/06/02 12:10:49;;;;;;;4.03;2.37;;;24.70;66.60;;;;;;5026802;28;20485;-70
2021/06/02 12:13:17;;;;;;;2.77;2.50;;;24.70;66.80;;;;;;5025356;28;20480;-71
2021/06/02 12:15:45;;;;;;;2.47;2.27;;;24.70;66.70;;;;;;5025181;28;20528;-72
2021/06/02 12:18:13;;;;;;;3.50;1.77;;;24.70;66.70;;;;;;5029774;28;20957;-72
2021/06/02 12:20:40;;;;;;;3.70;2.80;;;24.70;66.70;;;;;;5032452;28;20438;-72
2021/06/02 12:23:07;;;;;;;2.73;2.40;;;24.70;66.70;;;;;;5031931;28;20803;-72
2021/06/02 12:25:34;;;;;;;6.30;2.27;;;24.70;66.90;;;;;;5031896;28;20493;-72
2021/06/02 12:28:04;;;;;;;5.43;3.03;;;24.70;67.10;;;;;;5032738;28;20456;-71
2021/06/02 12:30:34;;;;;;;2.40;2.20;;;24.70;67.10;;;;;;5031948;28;20498;-72
2021/06/02 12:33:01;;;;;;;2.60;2.40;;;24.60;67.30;;;;;;5032109;28;20568;-72
2021/06/02 12:35:38;;;;;;;2.10;1.73;;;24.70;67.30;;;;;;5032230;28;20454;-72
2021/06/02 12:38:11;;;;;;;3.77;2.60;;;24.60;67.30;;;;;;5030029;28;20474;-71
2021/06/02 12:40:39;;;;;;;2.50;2.23;;;24.70;67.40;;;;;;5032909;28;20541;-72
2021/06/02 12:43:11;;;;;;;3.50;3.00;;;24.70;66.30;;;;;;5033464;28;20442;-71
2021/06/02 12:45:37;;;;;;;2.73;2.50;;;24.80;64.60;;;;;;5032246;28;20470;-71
2021/06/02 12:48:04;;;;;;;3.30;2.60;;;24.80;63.30;;;;;;5028090;28;20458;-71
2021/06/02 12:50:39;;;;;;;6.33;2.40;;;24.80;63.90;;;;;;5022569;28;20450;-71
2021/06/02 12:53:08;;;;;;;2.70;2.50;;;24.80;64.30;;;;;;5021232;28;20468;-71
2021/06/02 12:55:35;;;;;;;2.90;2.50;;;24.90;64.60;;;;;;5014099;28;20439;-71
2021/06/02 12:58:04;;;;;;;2.73;2.00;;;24.80;64.90;;;;;;5020590;28;20461;-71
2021/06/02 13:00:30;;;;;;;4.80;2.97;;;24.90;65.50;;;;;;5028121;28;20458;-71
2021/06/02 13:02:58;;;;;;;3.50;3.10;;;24.90;65.20;;;;;;5024268;28;20453;-71
2021/06/02 13:05:25;;;;;;;2.70;2.50;;;24.80;64.90;;;;;;5024166;28;20971;-71
2021/06/02 13:07:52;;;;;;;4.50;2.80;;;24.80;65.10;;;;;;5026342;28;20533;-70
2021/06/02 13:10:20;;;;;;;2.97;2.60;;;24.80;65.30;;;;;;5020470;28;20769;-70
2021/06/02 13:12:50;;;;;;;3.00;2.33;;;24.80;65.10;;;;;;5030950;28;20457;-70
2021/06/02 13:15:25;;;;;;;6.80;2.97;;;24.80;65.40;;;;;;5031375;28;20523;-71
2021/06/02 13:17:52;;;;;;;2.90;2.27;;;24.80;65.80;;;;;;5031575;28;20783;-70
2021/06/02 13:20:33;;;;;;;3.47;3.13;;;24.80;65.70;;;;;;5022388;28;20462;-70
2021/06/02 13:23:17;;;;;;;2.70;2.33;;;24.80;65.90;;;;;;5032388;28;20453;-71
2021/06/02 13:25:46;;;;;;;2.60;2.40;;;24.80;65.60;;;;;;5031838;28;20488;-70
2021/06/02 13:28:12;;;;;;;2.70;2.30;;;24.90;65.80;;;;;;5032055;28;20450;-70
2021/06/02 13:30:45;;;;;;;3.93;2.10;;;24.90;65.80;;;;;;5031063;28;20453;-70